createdAt,value
2022-08-09T00:01:10.729Z,99.90
2022-08-09T00:04:06.028Z,99.90
2022-08-09T00:06:28.056Z,99.90
2022-08-09T00:08:57.102Z,99.90
2022-08-09T00:11:56.929Z,99.90
2022-08-09T00:14:11.568Z,99.90
2022-08-09T00:16:44.911Z,99.90
2022-08-09T00:19:14.365Z,99.90
2022-08-09T00:21:56.218Z,99.90
2022-08-09T00:24:24.730Z,99.90
2022-08-09T00:26:54.049Z,99.90
2022-08-09T00:30:10.091Z,99.90
2022-08-09T00:32:07.448Z,99.90
2022-08-09T00:34:34.059Z,99.90
2022-08-09T00:37:01.025Z,99.90
2022-08-09T00:40:13.263Z,99.90
2022-08-09T00:44:16.132Z,99.90
2022-08-09T00:45:03.528Z,99.90
2022-08-09T00:47:41.982Z,99.90
2022-08-09T00:50:14.606Z,99.90
2022-08-09T00:52:42.428Z,99.90
2022-08-09T00:55:16.719Z,99.90
2022-08-09T00:57:59.254Z,99.90
2022-08-09T01:00:26.744Z,99.90
2022-08-09T01:03:16.514Z,99.90
2022-08-09T01:05:54.796Z,99.90
2022-08-09T01:08:27.660Z,99.90
2022-08-09T01:11:15.172Z,99.90
2022-08-09T01:14:02.442Z,99.90
2022-08-09T01:16:36.663Z,99.90
2022-08-09T01:19:42.341Z,99.90
2022-08-09T01:22:51.514Z,99.90
2022-08-09T01:25:31.232Z,99.90
2022-08-09T01:28:01.428Z,99.90
2022-08-09T01:30:35.576Z,99.90
2022-08-09T01:33:18.121Z,99.90
2022-08-09T01:36:03.100Z,99.90
2022-08-09T01:38:36.217Z,99.90
2022-08-09T01:41:11.962Z,99.90
2022-08-09T01:43:50.522Z,99.90
2022-08-09T01:46:27.929Z,99.90
2022-08-09T01:49:10.702Z,99.90
2022-08-09T01:51:44.347Z,99.90
2022-08-09T01:54:21.379Z,99.90
2022-08-09T01:56:51.861Z,99.90
2022-08-09T01:59:21.111Z,99.90
2022-08-09T02:01:58.989Z,99.90
2022-08-09T02:04:29.603Z,99.90
2022-08-09T02:07:15.561Z,99.90
2022-08-09T02:10:05.601Z,99.90
2022-08-09T02:12:34.989Z,99.90
2022-08-09T02:15:06.426Z,99.90
2022-08-09T02:18:01.536Z,99.90
2022-08-09T02:20:26.494Z,99.90
2022-08-09T02:23:07.037Z,99.90
2022-08-09T02:25:42.310Z,99.90
2022-08-09T02:28:24.257Z,99.90
2022-08-09T02:30:58.473Z,99.90
2022-08-09T02:33:38.116Z,99.90
2022-08-09T02:36:26.296Z,99.90
2022-08-09T02:38:58.394Z,99.90
2022-08-09T02:41:38.102Z,99.90
2022-08-09T02:44:13.659Z,99.90
2022-08-09T02:46:52.104Z,99.90
2022-08-09T02:49:20.598Z,99.90
2022-08-09T02:52:07.305Z,99.90
2022-08-09T02:54:36.153Z,99.90
2022-08-09T02:57:23.457Z,99.90
2022-08-09T03:00:25.005Z,99.90
2022-08-09T03:02:58.656Z,99.90
2022-08-09T03:05:29.801Z,99.90
2022-08-09T03:08:03.820Z,99.90
2022-08-09T03:10:32.827Z,99.90
2022-08-09T03:13:00.280Z,99.90
2022-08-09T03:16:04.484Z,99.90
2022-08-09T03:18:30.577Z,99.90
2022-08-09T03:20:59.394Z,99.90
2022-08-09T03:23:26.540Z,99.90
2022-08-09T03:25:57.660Z,99.90
2022-08-09T03:28:27.050Z,99.90
2022-08-09T03:30:55.496Z,99.90
2022-08-09T03:33:23.292Z,99.90
2022-08-09T03:36:12.554Z,99.90
2022-08-09T03:38:43.454Z,99.90
2022-08-09T03:41:14.801Z,99.90
2022-08-09T03:43:42.809Z,99.90
2022-08-09T03:46:30.299Z,99.90
2022-08-09T03:48:59.471Z,99.90
2022-08-09T03:51:55.062Z,99.90
2022-08-09T03:54:19.317Z,99.90
2022-08-09T03:56:58.163Z,99.90
2022-08-09T03:59:27.183Z,99.90
2022-08-09T04:01:59.264Z,99.90
2022-08-09T04:04:32.498Z,99.90
2022-08-09T04:07:03.515Z,99.90
2022-08-09T04:09:41.863Z,99.90
2022-08-09T04:12:30.493Z,99.90
2022-08-09T04:15:01.484Z,99.90
2022-08-09T04:17:38.210Z,99.90
2022-08-09T04:20:07.082Z,99.90
2022-08-09T04:22:34.397Z,99.90
2022-08-09T04:25:04.066Z,99.90
2022-08-09T04:27:31.294Z,99.90
2022-08-09T04:29:59.596Z,99.90
2022-08-09T04:32:33.613Z,99.90
2022-08-09T04:35:01.236Z,99.90
2022-08-09T04:37:42.060Z,99.90
2022-08-09T04:40:19.155Z,99.90
2022-08-09T04:42:55.669Z,99.90
2022-08-09T04:45:23.693Z,99.90
2022-08-09T04:48:00.200Z,99.90
2022-08-09T04:50:33.734Z,99.90
2022-08-09T04:53:13.170Z,99.90
2022-08-09T04:55:57.710Z,99.90
2022-08-09T04:58:32.864Z,99.90
2022-08-09T05:01:01.435Z,99.90
2022-08-09T05:03:41.248Z,99.90
2022-08-09T05:06:25.768Z,99.90
2022-08-09T05:09:00.015Z,99.90
2022-08-09T05:11:30.453Z,99.90
2022-08-09T05:13:59.537Z,99.90
2022-08-09T05:16:31.463Z,99.90
2022-08-09T05:19:00.215Z,99.90
2022-08-09T05:21:29.911Z,99.90
2022-08-09T05:24:01.482Z,99.90
2022-08-09T05:26:36.728Z,99.90
2022-08-09T05:29:17.260Z,99.90
2022-08-09T05:31:47.545Z,99.90
2022-08-09T05:34:18.718Z,99.90
2022-08-09T05:36:47.254Z,99.90
2022-08-09T05:39:28.562Z,99.90
2022-08-09T05:41:56.457Z,99.90
2022-08-09T05:44:32.217Z,99.90
2022-08-09T05:46:59.299Z,99.90
2022-08-09T05:50:25.298Z,99.90
2022-08-09T05:52:12.517Z,99.90
2022-08-09T05:54:40.226Z,99.90
2022-08-09T05:57:07.785Z,99.90
2022-08-09T05:59:39.689Z,99.90
2022-08-09T06:02:09.141Z,99.90
2022-08-09T06:04:36.810Z,99.90
2022-08-09T06:07:11.598Z,99.90
2022-08-09T06:10:01.528Z,99.90
2022-08-09T06:12:30.390Z,99.90
2022-08-09T06:15:00.929Z,99.90
2022-08-09T06:17:40.362Z,99.90
2022-08-09T06:20:08.405Z,99.90
2022-08-09T06:22:35.629Z,99.90
2022-08-09T06:25:02.874Z,99.90
2022-08-09T06:27:43.138Z,99.90
2022-08-09T06:30:16.937Z,99.90
2022-08-09T06:33:00.135Z,99.90
2022-08-09T06:35:56.093Z,99.90
2022-08-09T06:38:19.257Z,99.90
2022-08-09T06:40:46.040Z,99.90
2022-08-09T06:43:14.034Z,99.90
2022-08-09T06:46:07.129Z,99.90
2022-08-09T06:48:31.126Z,99.90
2022-08-09T06:51:01.349Z,99.90
2022-08-09T06:53:33.191Z,99.90
2022-08-09T06:56:09.255Z,99.90
2022-08-09T07:00:47.466Z,99.90
2022-08-09T07:01:24.227Z,99.90
2022-08-09T07:03:57.864Z,99.90
2022-08-09T07:06:30.488Z,99.90
2022-08-09T07:08:57.139Z,99.90
2022-08-09T07:11:25.485Z,99.90
2022-08-09T07:14:04.830Z,99.90
2022-08-09T07:16:43.461Z,99.90
2022-08-09T07:19:22.932Z,99.90
2022-08-09T07:21:57.223Z,99.90
2022-08-09T07:24:31.903Z,99.90
2022-08-09T07:27:24.057Z,99.90
2022-08-09T07:29:57.146Z,99.90
2022-08-09T07:32:31.960Z,99.90
2022-08-09T07:34:59.402Z,99.90
2022-08-09T07:37:26.040Z,99.90
2022-08-09T07:39:53.774Z,99.90
2022-08-09T07:42:32.449Z,99.90
2022-08-09T07:45:01.747Z,99.90
2022-08-09T07:47:49.530Z,99.90
2022-08-09T07:50:21.674Z,99.90
2022-08-09T07:53:03.079Z,99.90
2022-08-09T07:55:41.537Z,99.90
2022-08-09T07:58:19.075Z,99.90
2022-08-09T08:00:58.736Z,99.90
2022-08-09T08:03:32.679Z,99.90
2022-08-09T08:05:59.292Z,99.90
2022-08-09T08:09:02.258Z,99.90
2022-08-09T08:12:09.691Z,99.90
2022-08-09T08:14:00.598Z,99.90
2022-08-09T08:16:31.712Z,99.90
2022-08-09T08:19:03.284Z,99.90
2022-08-09T08:21:31.575Z,99.90
2022-08-09T08:24:01.478Z,99.90
2022-08-09T08:26:47.449Z,99.90
2022-08-09T08:29:27.806Z,99.90
2022-08-09T08:32:03.274Z,99.90
2022-08-09T08:34:34.391Z,99.90
2022-08-09T08:37:02.186Z,99.90
2022-08-09T08:39:28.990Z,99.90
2022-08-09T08:42:05.364Z,99.90
2022-08-09T08:44:36.031Z,99.90
2022-08-09T08:47:04.791Z,99.20
2022-08-09T08:49:46.679Z,99.30
2022-08-09T08:52:48.510Z,99.20
2022-08-09T08:55:05.806Z,99.10
2022-08-09T08:57:35.339Z,98.70
2022-08-09T09:00:12.627Z,98.30
2022-08-09T09:02:46.827Z,97.90
2022-08-09T09:05:33.353Z,97.70
2022-08-09T09:08:29.916Z,98.30
2022-08-09T09:11:01.016Z,97.50
2022-08-09T09:13:41.937Z,97.40
2022-08-09T09:16:15.071Z,97.00
2022-08-09T09:18:48.038Z,96.70
2022-08-09T09:21:15.789Z,96.50
2022-08-09T09:23:49.904Z,96.20
2022-08-09T09:26:26.208Z,96.20
2022-08-09T09:29:04.378Z,95.50
2022-08-09T09:32:04.016Z,95.40
2022-08-09T09:34:25.515Z,95.10
2022-08-09T09:36:56.716Z,94.80
2022-08-09T09:39:42.795Z,94.50
2022-08-09T09:42:24.473Z,94.30
2022-08-09T09:45:00.802Z,94.30
2022-08-09T09:47:30.479Z,94.40
2022-08-09T09:50:14.942Z,94.40
2022-08-09T09:52:56.332Z,94.30
2022-08-09T09:55:32.296Z,94.20
2022-08-09T09:58:19.316Z,94.20
2022-08-09T10:00:55.277Z,94.00
2022-08-09T10:03:57.016Z,94.00
2022-08-09T10:06:32.073Z,92.80
2022-08-09T10:09:02.884Z,93.00
2022-08-09T10:12:00.044Z,92.50
2022-08-09T10:14:33.154Z,92.80
2022-08-09T10:17:24.290Z,92.20
2022-08-09T10:19:58.920Z,92.40
2022-08-09T10:22:36.303Z,91.90
2022-08-09T10:25:12.102Z,91.90
2022-08-09T10:27:56.655Z,91.70
2022-08-09T10:34:04.230Z,91.60
2022-08-09T10:36:04.786Z,91.10
2022-08-09T10:38:54.405Z,91.20
2022-08-09T10:41:20.426Z,91.10
2022-08-09T10:43:58.679Z,90.60
2022-08-09T10:46:34.134Z,90.70
2022-08-09T10:49:42.277Z,90.80
2022-08-09T10:52:54.946Z,90.70
2022-08-09T10:55:35.654Z,90.50
2022-08-09T10:58:37.029Z,91.00
2022-08-09T11:03:06.925Z,90.00
2022-08-09T11:04:27.897Z,89.40
2022-08-09T11:07:00.023Z,89.00
2022-08-09T11:09:45.320Z,88.70
2022-08-09T11:12:21.569Z,88.40
2022-08-09T11:15:15.404Z,87.30
2022-08-09T11:17:56.863Z,86.70
2022-08-09T11:20:41.398Z,86.90
2022-08-09T11:23:10.541Z,85.80
2022-08-09T11:25:46.197Z,86.50
2022-08-09T11:28:33.819Z,86.70
2022-08-09T11:31:03.407Z,85.60
2022-08-09T11:33:44.215Z,84.70
2022-08-09T11:36:35.409Z,84.00
2022-08-09T11:39:03.775Z,84.70
2022-08-09T11:41:38.130Z,85.10
2022-08-09T11:44:07.406Z,83.80
2022-08-09T11:46:57.776Z,83.70
2022-08-09T11:50:53.869Z,83.40
2022-08-09T11:53:28.091Z,83.20
2022-08-09T11:55:52.068Z,82.40
2022-08-09T11:58:30.453Z,82.10
2022-08-09T12:01:03.389Z,81.20
2022-08-09T12:03:56.911Z,81.00
2022-08-09T12:06:26.739Z,79.60
2022-08-09T12:09:01.266Z,80.40
2022-08-09T12:11:29.066Z,80.00
2022-08-09T12:14:09.507Z,79.60
2022-08-09T12:16:41.530Z,80.00
2022-08-09T12:19:12.179Z,79.70
2022-08-09T12:21:50.340Z,79.10
2022-08-09T12:24:23.827Z,79.00
2022-08-09T12:29:13.476Z,78.30
2022-08-09T12:29:43.993Z,77.40
2022-08-09T12:32:27.078Z,76.60
2022-08-09T12:34:59.831Z,77.70
2022-08-09T12:37:49.888Z,78.10
2022-08-09T12:40:18.575Z,77.90
2022-08-09T12:42:50.386Z,76.90
2022-08-09T12:45:34.872Z,76.50
2022-08-09T12:48:19.918Z,76.90
2022-08-09T12:50:48.670Z,76.80
2022-08-09T12:53:38.652Z,76.60
2022-08-09T12:56:40.152Z,75.70
2022-08-09T12:59:11.903Z,74.60
2022-08-09T13:01:49.027Z,74.60
2022-08-09T13:04:37.153Z,74.80
2022-08-09T13:07:19.788Z,73.90
2022-08-09T13:10:05.139Z,73.20
2022-08-09T13:12:32.872Z,72.80
2022-08-09T13:15:08.000Z,72.00
2022-08-09T13:18:03.545Z,73.00
2022-08-09T13:20:37.661Z,72.70
2022-08-09T13:24:16.135Z,71.80
2022-08-09T13:26:42.469Z,70.10
2022-08-09T13:29:13.145Z,70.20
2022-08-09T13:32:16.053Z,70.10
2022-08-09T13:34:44.983Z,68.70
2022-08-09T13:37:14.947Z,69.50
2022-08-09T13:41:54.895Z,68.40
2022-08-09T13:42:49.949Z,67.50
2022-08-09T13:45:17.797Z,69.00
2022-08-09T13:47:49.481Z,69.70
2022-08-09T13:50:30.463Z,69.80
2022-08-09T13:52:59.305Z,69.30
2022-08-09T13:55:28.861Z,67.90
2022-08-09T13:57:58.287Z,67.90
2022-08-09T14:00:28.596Z,68.30
2022-08-09T14:03:17.197Z,67.80
2022-08-09T14:05:58.390Z,67.90
2022-08-09T14:08:29.927Z,67.70
2022-08-09T14:10:57.102Z,68.30
2022-08-09T14:14:16.250Z,67.30
2022-08-09T14:16:15.437Z,66.00
2022-08-09T14:18:49.386Z,65.50
2022-08-09T14:21:24.166Z,66.60
2022-08-09T14:23:54.835Z,66.70
2022-08-09T14:26:30.112Z,68.00
2022-08-09T14:29:25.553Z,67.40
2022-08-09T14:31:58.362Z,67.30
2022-08-09T14:34:33.100Z,66.50
2022-08-09T14:37:06.238Z,67.80
2022-08-09T14:39:46.467Z,66.20
2022-08-09T14:42:31.744Z,65.90
2022-08-09T14:46:39.340Z,66.20
2022-08-09T14:47:57.821Z,66.80
2022-08-09T14:50:30.987Z,66.90
2022-08-09T14:52:58.941Z,66.90
2022-08-09T14:55:25.857Z,66.60
2022-08-09T14:58:00.089Z,65.50
2022-08-09T15:00:27.068Z,65.50
2022-08-09T15:02:58.202Z,65.40
2022-08-09T15:05:25.046Z,64.70
2022-08-09T15:07:56.505Z,65.00
2022-08-09T15:10:26.363Z,64.90
2022-08-09T15:12:54.231Z,64.70
2022-08-09T15:15:21.610Z,63.80
2022-08-09T15:17:52.313Z,63.60
2022-08-09T15:21:55.732Z,64.10
2022-08-09T15:24:01.170Z,64.00
2022-08-09T15:25:57.322Z,63.80
2022-08-09T15:28:27.382Z,64.50
2022-08-09T15:31:08.592Z,63.30
2022-08-09T15:34:27.490Z,63.40
2022-08-09T15:36:28.881Z,64.30
2022-08-09T15:39:00.213Z,64.90
2022-08-09T15:41:31.500Z,65.20
2022-08-09T15:43:59.984Z,64.60
2022-08-09T15:46:33.666Z,64.80
2022-08-09T15:49:20.684Z,64.80
2022-08-09T15:52:04.554Z,63.30
2022-08-09T15:54:44.579Z,64.70
2022-08-09T15:57:33.797Z,65.00
2022-08-09T16:00:02.389Z,64.60
2022-08-09T16:02:28.961Z,64.80
2022-08-09T16:04:55.866Z,64.50
2022-08-09T16:07:22.497Z,63.90
2022-08-09T16:10:02.437Z,64.40
2022-08-09T16:12:32.576Z,64.90
2022-08-09T16:14:59.622Z,64.90
2022-08-09T16:17:28.590Z,65.30
2022-08-09T16:20:05.094Z,65.60
2022-08-09T16:22:42.256Z,65.40
2022-08-09T16:25:10.619Z,65.50
2022-08-09T16:27:38.118Z,64.90
2022-08-09T16:30:15.277Z,65.00
2022-08-09T16:33:11.344Z,66.00
2022-08-09T16:35:56.925Z,66.10
2022-08-09T16:38:26.925Z,65.90
2022-08-09T16:40:53.623Z,65.80
2022-08-09T16:43:22.169Z,65.60
2022-08-09T16:45:53.829Z,65.40
2022-08-09T16:48:40.749Z,66.20
2022-08-09T16:51:14.089Z,66.30
2022-08-09T16:54:08.875Z,66.80
2022-08-09T16:56:30.859Z,67.10
2022-08-09T16:58:58.380Z,67.00
2022-08-09T17:01:25.768Z,67.00
2022-08-09T17:03:53.315Z,66.70
2022-08-09T17:06:31.703Z,67.10
2022-08-09T17:09:16.194Z,67.20
2022-08-09T17:11:48.004Z,67.20
2022-08-09T17:14:28.089Z,67.50
2022-08-09T17:17:01.574Z,67.90
2022-08-09T17:19:47.703Z,67.80
2022-08-09T17:22:33.998Z,68.20
2022-08-09T17:25:10.133Z,68.40
2022-08-09T17:27:49.443Z,68.70
2022-08-09T17:30:25.712Z,69.10
2022-08-09T17:32:53.093Z,68.80
2022-08-09T17:35:19.835Z,70.00
2022-08-09T17:38:12.053Z,70.50
2022-08-09T17:40:35.170Z,70.70
2022-08-09T17:43:32.132Z,70.20
2022-08-09T17:46:03.905Z,70.30
2022-08-09T17:48:40.417Z,70.50
2022-08-09T17:51:18.779Z,70.40
2022-08-09T17:53:53.318Z,70.60
2022-08-09T17:56:27.703Z,70.50
2022-08-09T17:58:56.478Z,71.10
2022-08-09T18:01:23.912Z,71.60
2022-08-09T18:03:54.561Z,71.70
2022-08-09T18:06:31.670Z,72.00
2022-08-09T18:09:04.608Z,71.90
2022-08-09T18:11:46.901Z,72.70
2022-08-09T18:14:21.966Z,73.00
2022-08-09T18:16:49.779Z,74.10
2022-08-09T18:21:00.796Z,74.30
2022-08-09T18:22:05.715Z,75.10
2022-08-09T18:24:39.996Z,75.20
2022-08-09T18:27:08.430Z,75.40
2022-08-09T18:30:41.445Z,75.90
2022-08-09T18:32:21.710Z,76.30
2022-08-09T18:34:48.884Z,76.60
2022-08-09T18:37:47.327Z,77.20
2022-08-09T18:40:02.743Z,77.80
2022-08-09T18:42:30.477Z,78.40
2022-08-09T18:44:57.263Z,79.20
2022-08-09T18:47:32.812Z,79.50
2022-08-09T18:50:05.946Z,80.20
2022-08-09T18:52:36.360Z,80.80
2022-08-09T18:55:05.065Z,81.40
2022-08-09T18:57:42.920Z,82.20
2022-08-09T19:00:11.103Z,83.00
2022-08-09T19:02:38.276Z,84.10
2022-08-09T19:05:20.420Z,85.10
2022-08-09T19:08:03.967Z,85.90
2022-08-09T19:10:39.295Z,86.90
2022-08-09T19:13:18.140Z,87.70
2022-08-09T19:15:56.645Z,88.30
2022-08-09T19:18:32.957Z,89.00
2022-08-09T19:21:02.538Z,90.00
2022-08-09T19:24:35.829Z,90.40
2022-08-09T19:26:16.489Z,90.70
2022-08-09T19:28:48.941Z,91.00
2022-08-09T19:31:16.803Z,91.30
2022-08-09T19:33:43.977Z,91.50
2022-08-09T19:36:11.807Z,91.70
2022-08-09T19:38:40.239Z,92.00
2022-08-09T19:41:06.992Z,92.40
2022-08-09T19:44:00.967Z,92.80
2022-08-09T19:46:34.059Z,93.10
2022-08-09T19:50:07.060Z,93.60
2022-08-09T19:51:55.458Z,94.00
2022-08-09T19:54:27.108Z,94.40
2022-08-09T19:56:55.583Z,94.70
2022-08-09T19:59:58.413Z,95.00
2022-08-09T20:02:18.089Z,95.40
2022-08-09T20:04:59.041Z,95.90
2022-08-09T20:07:26.173Z,96.40
2022-08-09T20:10:17.592Z,96.60
2022-08-09T20:12:49.003Z,97.10
2022-08-09T20:16:34.296Z,97.70
2022-08-09T20:18:03.408Z,97.90
2022-08-09T20:20:34.244Z,98.40
2022-08-09T20:23:01.022Z,99.40
2022-08-09T20:25:28.934Z,99.40
2022-08-09T20:28:05.115Z,99.90
2022-08-09T20:30:33.658Z,99.90
2022-08-09T20:33:00.276Z,99.90
2022-08-09T20:35:28.403Z,99.90
2022-08-09T20:38:22.106Z,99.90
2022-08-09T20:40:44.127Z,99.90
2022-08-09T20:43:24.781Z,99.90
2022-08-09T20:45:59.344Z,99.90
2022-08-09T20:48:39.007Z,99.90
2022-08-09T20:51:06.479Z,99.90
2022-08-09T20:53:36.703Z,99.90
2022-08-09T20:56:06.397Z,99.90
2022-08-09T20:58:35.778Z,99.90
2022-08-09T21:01:13.972Z,99.90
2022-08-09T21:04:14.087Z,99.90
2022-08-09T21:06:42.573Z,99.90
2022-08-09T21:09:11.629Z,99.90
2022-08-09T21:14:26.664Z,99.90
2022-08-09T21:16:58.020Z,99.90
2022-08-09T21:20:17.591Z,99.90
2022-08-09T21:22:36.021Z,99.90
2022-08-09T21:25:18.409Z,99.90
2022-08-09T21:27:52.329Z,99.90
2022-08-09T21:30:22.420Z,99.90
2022-08-09T21:32:50.379Z,99.90
2022-08-09T21:35:17.318Z,99.90
2022-08-09T21:37:56.851Z,99.90
2022-08-09T21:40:31.020Z,99.90
2022-08-09T21:43:00.906Z,99.90
2022-08-09T21:45:27.984Z,99.90
2022-08-09T21:47:55.765Z,99.90
2022-08-09T21:50:33.876Z,99.90
2022-08-09T21:53:03.877Z,99.90
2022-08-09T21:55:30.539Z,99.90
2022-08-09T21:58:01.954Z,99.90
2022-08-09T22:00:34.395Z,99.90
2022-08-09T22:03:04.712Z,99.90
2022-08-09T22:05:41.851Z,99.90
2022-08-09T22:08:13.508Z,99.90
2022-08-09T22:11:50.258Z,99.90
2022-08-09T22:13:33.903Z,99.90
2022-08-09T22:16:03.563Z,99.90
2022-08-09T22:18:30.914Z,99.90
2022-08-09T22:21:00.307Z,99.90
2022-08-09T22:23:35.479Z,99.90
2022-08-09T22:26:23.298Z,99.90
2022-08-09T22:29:01.056Z,99.90
2022-08-09T22:31:34.571Z,99.90
2022-08-09T22:34:01.174Z,99.90
2022-08-09T22:36:27.790Z,99.90
2022-08-09T22:38:54.465Z,99.90
2022-08-09T22:41:21.214Z,99.90
2022-08-09T22:44:01.642Z,99.90
2022-08-09T22:48:16.513Z,99.90
2022-08-09T22:49:17.722Z,99.90
2022-08-09T22:51:49.679Z,99.90
2022-08-09T22:54:26.917Z,99.90
2022-08-09T22:56:56.569Z,99.90
2022-08-09T22:59:57.332Z,99.90
2022-08-09T23:02:11.287Z,99.90
2022-08-09T23:04:45.050Z,99.90
2022-08-09T23:08:21.709Z,99.90
2022-08-09T23:10:26.831Z,99.90
2022-08-09T23:12:53.644Z,99.90
2022-08-09T23:15:20.348Z,99.90
2022-08-09T23:17:47.033Z,99.90
2022-08-09T23:20:13.695Z,99.90
2022-08-09T23:22:40.616Z,99.90
2022-08-09T23:25:07.663Z,99.90
2022-08-09T23:27:34.547Z,99.90
2022-08-09T23:30:01.410Z,99.90
2022-08-09T23:32:28.500Z,99.90
2022-08-09T23:34:55.133Z,99.90
2022-08-09T23:37:22.851Z,99.90
2022-08-09T23:39:52.228Z,99.90
2022-08-09T23:42:18.834Z,99.90
2022-08-09T23:44:45.474Z,99.90
2022-08-09T23:47:12.396Z,99.90
2022-08-09T23:49:39.022Z,99.90
2022-08-09T23:52:05.739Z,99.90
2022-08-09T23:54:32.377Z,99.90
2022-08-09T23:56:59.114Z,99.90
2022-08-09T23:59:45.989Z,99.90
